createdAt,value
2023-04-01T00:01:28.301Z,15.56
2023-04-01T00:03:57.792Z,15.46
2023-04-01T00:06:26.383Z,15.38
2023-04-01T00:08:55.387Z,15.38
2023-04-01T00:11:27.606Z,15.31
2023-04-01T00:13:56.647Z,15.45
2023-04-01T00:16:25.284Z,15.50
2023-04-01T00:18:54.233Z,15.44
2023-04-01T00:21:23.922Z,15.45
2023-04-01T00:23:53.322Z,15.53
2023-04-01T00:26:23.068Z,15.50
2023-04-01T00:28:53.706Z,15.24
2023-04-01T00:31:22.751Z,15.39
2023-04-01T00:33:53.514Z,15.34
2023-04-01T00:36:24.211Z,15.23
2023-04-01T00:38:53.769Z,15.02
2023-04-01T00:41:22.748Z,14.85
2023-04-01T00:43:54.423Z,14.85
2023-04-01T00:46:23.191Z,14.94
2023-04-01T00:48:55.970Z,14.96
2023-04-01T00:51:30.070Z,15.03
2023-04-01T00:54:02.784Z,15.12
2023-04-01T00:56:34.540Z,15.13
2023-04-01T00:59:09.671Z,15.17
2023-04-01T01:01:38.493Z,15.20
2023-04-01T01:04:08.007Z,15.17
2023-04-01T01:06:49.222Z,15.01
2023-04-01T01:09:46.766Z,15.04
2023-04-01T01:12:19.656Z,14.98
2023-04-01T01:14:57.927Z,15.09
2023-04-01T01:17:37.628Z,15.03
2023-04-01T01:20:26.389Z,14.96
2023-04-01T01:23:25.446Z,14.78
2023-04-01T01:26:13.438Z,14.76
2023-04-01T01:28:52.280Z,14.67
2023-04-01T01:31:31.496Z,14.78
2023-04-01T01:34:14.052Z,14.74
2023-04-01T01:36:47.986Z,14.70
2023-04-01T01:39:17.995Z,14.73
2023-04-01T01:41:50.529Z,14.73
2023-04-01T01:44:20.721Z,14.76
2023-04-01T01:46:50.659Z,14.81
2023-04-01T01:49:21.220Z,14.75
2023-04-01T01:51:51.465Z,14.75
2023-04-01T01:54:20.738Z,14.77
2023-04-01T01:56:55.615Z,14.85
2023-04-01T01:59:28.238Z,14.79
2023-04-01T02:02:00.050Z,14.58
2023-04-01T02:04:29.522Z,14.58
2023-04-01T02:07:04.661Z,14.44
2023-04-01T02:09:35.407Z,14.33
2023-04-01T02:12:08.679Z,14.34
2023-04-01T02:14:48.586Z,14.47
2023-04-01T02:17:20.604Z,14.53
2023-04-01T02:19:54.264Z,14.55
2023-04-01T02:22:28.429Z,14.45
2023-04-01T02:25:00.390Z,14.53
2023-04-01T02:27:30.406Z,14.43
2023-04-01T02:29:59.794Z,14.50
2023-04-01T02:32:31.196Z,14.22
2023-04-01T02:35:01.029Z,14.18
2023-04-01T02:37:32.818Z,14.09
2023-04-01T02:40:03.435Z,14.04
2023-04-01T02:42:32.276Z,14.09
2023-04-01T02:45:01.256Z,14.11
2023-04-01T02:47:30.257Z,14.02
2023-04-01T02:49:59.874Z,13.84
2023-04-01T02:52:29.438Z,13.87
2023-04-01T02:55:01.321Z,13.98
2023-04-01T02:57:30.727Z,14.02
2023-04-01T02:59:59.418Z,14.07
2023-04-01T03:02:28.445Z,14.08
2023-04-01T03:04:57.362Z,14.12
2023-04-01T03:07:26.293Z,14.18
2023-04-01T03:09:54.940Z,14.11
2023-04-01T03:12:25.351Z,14.11
2023-04-01T03:14:54.499Z,14.12
2023-04-01T03:17:23.521Z,14.06
2023-04-01T03:19:52.449Z,14.07
2023-04-01T03:22:22.110Z,14.08
2023-04-01T03:24:50.926Z,14.09
2023-04-01T03:27:19.885Z,14.08
2023-04-01T03:29:49.936Z,14.09
2023-04-01T03:32:18.984Z,14.04
2023-04-01T03:34:47.589Z,13.98
2023-04-01T03:37:16.680Z,13.91
2023-04-01T03:39:45.424Z,13.90
2023-04-01T03:42:14.512Z,13.87
2023-04-01T03:44:43.175Z,13.89
2023-04-01T03:47:14.601Z,13.88
2023-04-01T03:49:43.371Z,13.84
2023-04-01T03:52:13.166Z,13.87
2023-04-01T03:54:42.112Z,13.81
2023-04-01T03:57:11.170Z,13.83
2023-04-01T03:59:39.975Z,13.80
2023-04-01T04:02:09.015Z,13.80
2023-04-01T04:04:39.646Z,13.81
2023-04-01T04:07:09.113Z,13.70
2023-04-01T04:09:57.717Z,13.73
2023-04-01T04:12:26.999Z,13.78
2023-04-01T04:14:56.272Z,13.72
2023-04-01T04:17:25.734Z,13.72
2023-04-01T04:19:55.784Z,13.76
2023-04-01T04:22:24.924Z,13.54
2023-04-01T04:24:53.593Z,13.49
2023-04-01T04:27:22.696Z,13.47
2023-04-01T04:30:02.663Z,13.33
2023-04-01T04:32:32.587Z,13.37
2023-04-01T04:35:02.878Z,13.32
2023-04-01T04:37:32.418Z,13.27
2023-04-01T04:40:01.888Z,13.26
2023-04-01T04:42:32.424Z,13.11
2023-04-01T04:45:08.357Z,13.13
2023-04-01T04:47:38.827Z,12.82
2023-04-01T04:50:10.918Z,12.86
2023-04-01T04:52:42.502Z,12.87
2023-04-01T04:55:11.185Z,12.85
2023-04-01T04:57:41.269Z,12.66
2023-04-01T05:00:11.244Z,12.77
2023-04-01T05:03:03.165Z,12.76
2023-04-01T05:05:33.476Z,13.01
2023-04-01T05:08:03.591Z,13.12
2023-04-01T05:10:32.654Z,13.10
2023-04-01T05:13:02.267Z,13.14
2023-04-01T05:15:31.249Z,13.08
2023-04-01T05:18:00.483Z,13.08
2023-04-01T05:20:29.285Z,12.99
2023-04-01T05:22:59.772Z,12.97
2023-04-01T05:25:28.978Z,13.06
2023-04-01T05:27:57.992Z,13.15
2023-04-01T05:30:26.833Z,12.83
2023-04-01T05:33:14.102Z,12.62
2023-04-01T05:35:43.162Z,12.58
2023-04-01T05:38:14.081Z,12.57
2023-04-01T05:40:43.082Z,12.70
2023-04-01T05:43:12.272Z,12.83
2023-04-01T05:45:41.513Z,12.70
2023-04-01T05:48:16.664Z,12.56
2023-04-01T05:50:46.429Z,12.56
2023-04-01T05:53:17.930Z,12.57
2023-04-01T05:55:47.499Z,12.29
2023-04-01T05:58:16.835Z,12.14
2023-04-01T06:00:56.021Z,12.13
2023-04-01T06:03:31.817Z,12.20
2023-04-01T06:06:02.164Z,12.29
2023-04-01T06:08:34.209Z,12.53
2023-04-01T06:11:21.522Z,12.69
2023-04-01T06:14:18.867Z,12.71
2023-04-01T06:17:04.787Z,12.65
2023-04-01T06:19:42.612Z,12.74
2023-04-01T06:22:46.994Z,12.42
2023-04-01T06:25:33.350Z,12.49
2023-04-01T06:28:34.018Z,12.29
2023-04-01T06:31:08.345Z,12.19
2023-04-01T06:33:54.951Z,12.11
2023-04-01T06:37:11.307Z,12.11
2023-04-01T06:39:52.334Z,11.93
2023-04-01T06:42:38.332Z,11.91
2023-04-01T06:45:31.046Z,11.84
2023-04-01T06:48:36.759Z,11.91
2023-04-01T06:51:48.942Z,11.97
2023-04-01T06:55:02.349Z,11.99
2023-04-01T06:57:54.560Z,11.94
2023-04-01T07:00:30.186Z,11.92
2023-04-01T07:03:08.814Z,11.81
2023-04-01T07:05:38.679Z,11.74
2023-04-01T07:08:12.753Z,11.85
2023-04-01T07:10:48.393Z,12.11
2023-04-01T07:13:41.955Z,11.67
2023-04-01T07:16:22.014Z,11.86
2023-04-01T07:18:55.604Z,11.53
2023-04-01T07:21:33.755Z,11.64
2023-04-01T07:24:08.932Z,11.82
2023-04-01T07:26:45.559Z,11.86
2023-04-01T07:29:21.793Z,11.89
2023-04-01T07:32:23.386Z,12.02
2023-04-01T07:35:12.261Z,11.90
2023-04-01T07:37:50.343Z,11.44
2023-04-01T07:40:31.714Z,11.84
2023-04-01T07:43:28.226Z,12.11
2023-04-01T07:46:21.066Z,12.28
2023-04-01T07:48:57.034Z,12.14
2023-04-01T07:51:31.654Z,12.00
2023-04-01T07:54:10.348Z,11.95
2023-04-01T07:56:48.050Z,11.94
2023-04-01T07:59:33.942Z,12.03
2023-04-01T08:02:24.119Z,11.99
2023-04-01T08:05:05.272Z,11.63
2023-04-01T08:07:46.751Z,11.98
2023-04-01T08:10:42.085Z,11.92
2023-04-01T08:13:46.452Z,11.93
2023-04-01T08:16:40.951Z,12.00
2023-04-01T08:19:28.537Z,12.18
2023-04-01T08:22:05.524Z,12.03
2023-04-01T08:24:47.116Z,12.19
2023-04-01T08:27:28.558Z,12.06
2023-04-01T08:30:02.075Z,11.92
2023-04-01T08:32:38.561Z,11.92
2023-04-01T08:35:19.661Z,12.01
2023-04-01T08:37:50.629Z,12.07
2023-04-01T08:40:52.908Z,12.00
2023-04-01T08:43:37.640Z,11.88
2023-04-01T08:46:22.321Z,12.22
2023-04-01T08:49:08.161Z,12.30
2023-04-01T08:52:13.121Z,12.62
2023-04-01T08:55:26.572Z,12.65
2023-04-01T08:58:34.684Z,13.01
2023-04-01T09:01:28.856Z,12.96
2023-04-01T09:04:36.285Z,12.90
2023-04-01T09:07:23.488Z,12.88
2023-04-01T09:10:24.211Z,13.08
2023-04-01T09:13:24.229Z,13.41
2023-04-01T09:16:28.741Z,13.51
2023-04-01T09:19:22.191Z,13.70
2023-04-01T09:22:11.919Z,13.75
2023-04-01T09:25:04.238Z,14.02
2023-04-01T09:27:38.867Z,14.06
2023-04-01T09:30:53.235Z,14.36
2023-04-01T09:33:59.594Z,14.47
2023-04-01T09:36:47.951Z,14.32
2023-04-01T09:39:47.613Z,14.46
2023-04-01T09:42:43.679Z,14.41
2023-04-01T09:45:36.376Z,14.45
2023-04-01T09:48:21.307Z,14.47
2023-04-01T09:51:04.097Z,14.52
2023-04-01T09:53:57.538Z,14.52
2023-04-01T09:57:11.657Z,12.79
2023-04-01T10:00:19.246Z,11.33
2023-04-01T10:03:27.765Z,10.53
2023-04-01T10:06:27.761Z,10.43
2023-04-01T10:09:37.226Z,10.40
2023-04-01T10:12:38.931Z,10.18
2023-04-01T10:15:52.804Z,10.07
2023-04-01T10:18:58.870Z,10.02
2023-04-01T10:22:02.357Z,9.81
2023-04-01T10:25:13.414Z,9.70
2023-04-01T10:28:00.215Z,9.76
2023-04-01T10:31:30.875Z,9.57
2023-04-01T10:34:34.242Z,9.52
2023-04-01T10:37:19.689Z,9.63
2023-04-01T10:40:30.549Z,9.30
2023-04-01T10:43:55.812Z,8.94
2023-04-01T10:46:53.223Z,9.26
2023-04-01T10:53:33.261Z,9.42
2023-04-01T10:56:36.002Z,9.35
2023-04-01T11:00:01.878Z,9.61
2023-04-01T11:03:44.720Z,9.46
2023-04-01T11:07:19.981Z,9.50
2023-04-01T11:10:25.275Z,8.31
2023-04-01T11:13:32.904Z,8.11
2023-04-01T11:16:35.422Z,8.24
2023-04-01T11:19:35.225Z,8.11
2023-04-01T11:22:32.237Z,8.17
2023-04-01T11:25:23.981Z,7.93
2023-04-01T11:28:44.250Z,7.86
2023-04-01T11:31:28.838Z,7.37
2023-04-01T11:34:12.785Z,7.20
2023-04-01T11:36:54.319Z,6.85
2023-04-01T11:39:39.397Z,6.82
2023-04-01T11:42:37.503Z,6.61
2023-04-01T11:45:38.799Z,6.37
2023-04-01T11:48:46.214Z,6.04
2023-04-01T11:51:46.054Z,6.20
2023-04-01T11:54:28.394Z,6.12
2023-04-01T11:57:15.466Z,6.13
2023-04-01T12:00:04.606Z,6.04
2023-04-01T12:02:57.653Z,6.11
2023-04-01T12:05:45.389Z,5.90
2023-04-01T12:08:31.088Z,6.12
2023-04-01T12:11:07.812Z,6.12
2023-04-01T12:13:45.513Z,5.84
2023-04-01T12:16:33.089Z,5.76
2023-04-01T12:19:11.672Z,6.05
2023-04-01T12:21:45.611Z,5.79
2023-04-01T12:24:46.580Z,5.92
2023-04-01T12:27:27.377Z,6.03
2023-04-01T12:30:12.938Z,6.01
2023-04-01T12:32:49.267Z,6.03
2023-04-01T12:35:26.630Z,6.15
2023-04-01T12:38:16.886Z,6.05
2023-04-01T12:41:00.046Z,6.56
2023-04-01T12:43:48.027Z,6.47
2023-04-01T12:46:28.212Z,6.30
2023-04-01T12:49:25.483Z,6.49
2023-04-01T12:52:15.814Z,6.49
2023-04-01T12:55:06.726Z,6.53
2023-04-01T12:58:23.751Z,6.36
2023-04-01T13:01:20.598Z,6.20
2023-04-01T13:04:23.035Z,6.63
2023-04-01T13:07:10.355Z,6.10
2023-04-01T13:09:51.999Z,6.01
2023-04-01T13:12:51.289Z,6.02
2023-04-01T13:15:30.673Z,6.12
2023-04-01T13:18:08.774Z,6.22
2023-04-01T13:20:49.550Z,5.95
2023-04-01T13:23:30.765Z,6.00
2023-04-01T13:26:15.458Z,5.89
2023-04-01T13:28:52.058Z,6.09
2023-04-01T13:31:34.424Z,6.34
2023-04-01T13:34:18.615Z,6.25
2023-04-01T13:37:06.369Z,6.23
2023-04-01T13:39:51.423Z,6.23
2023-04-01T13:42:28.218Z,6.37
2023-04-01T13:45:02.735Z,6.33
2023-04-01T13:48:04.667Z,6.24
2023-04-01T13:51:18.448Z,6.30
2023-04-01T13:54:22.914Z,6.27
2023-04-01T13:57:07.875Z,6.36
2023-04-01T14:00:00.488Z,7.04
2023-04-01T14:02:48.762Z,6.47
2023-04-01T14:05:43.210Z,6.52
2023-04-01T14:08:26.958Z,6.64
2023-04-01T14:11:09.741Z,6.88
2023-04-01T14:13:46.107Z,6.87
2023-04-01T14:16:36.356Z,6.65
2023-04-01T14:19:26.515Z,6.66
2023-04-01T14:22:06.831Z,6.57
2023-04-01T14:24:49.486Z,6.82
2023-04-01T14:27:36.800Z,6.81
2023-04-01T14:30:27.896Z,6.95
2023-04-01T14:33:09.222Z,6.80
2023-04-01T14:35:43.085Z,6.97
2023-04-01T14:38:28.257Z,7.56
2023-04-01T14:41:01.228Z,7.57
2023-04-01T14:43:49.819Z,8.12
2023-04-01T14:46:56.533Z,8.11
2023-04-01T14:49:36.102Z,8.32
2023-04-01T14:52:16.721Z,8.34
2023-04-01T14:54:48.988Z,8.01
2023-04-01T14:57:25.286Z,8.06
2023-04-01T15:00:00.438Z,8.20
2023-04-01T15:02:51.054Z,8.70
2023-04-01T15:05:34.767Z,8.45
2023-04-01T15:08:13.668Z,8.43
2023-04-01T15:10:56.293Z,8.13
2023-04-01T15:13:51.386Z,8.61
2023-04-01T15:16:30.110Z,8.14
2023-04-01T15:19:08.908Z,8.45
2023-04-01T15:21:53.002Z,8.93
2023-04-01T15:24:24.655Z,8.89
2023-04-01T15:27:18.124Z,9.23
2023-04-01T15:30:20.397Z,9.45
2023-04-01T15:33:04.937Z,9.20
2023-04-01T15:35:42.923Z,9.50
2023-04-01T15:38:27.194Z,9.73
2023-04-01T15:41:05.041Z,9.88
2023-04-01T15:43:43.695Z,9.83
2023-04-01T15:46:32.855Z,10.12
2023-04-01T15:49:15.062Z,10.27
2023-04-01T15:51:57.756Z,9.46
2023-04-01T15:54:35.155Z,9.00
2023-04-01T15:57:17.582Z,9.63
2023-04-01T15:59:59.447Z,9.80
2023-04-01T16:02:35.490Z,9.81
2023-04-01T16:05:18.456Z,10.04
2023-04-01T16:08:08.377Z,10.05
2023-04-01T16:10:52.317Z,10.11
2023-04-01T16:13:39.197Z,9.67
2023-04-01T16:16:21.914Z,10.00
2023-04-01T16:19:09.847Z,9.95
2023-04-01T16:21:44.112Z,9.96
2023-04-01T16:24:21.400Z,10.12
2023-04-01T16:26:56.876Z,10.04
2023-04-01T16:29:33.073Z,9.92
2023-04-01T16:32:18.598Z,10.21
2023-04-01T16:34:58.109Z,10.23
2023-04-01T16:37:36.184Z,10.27
2023-04-01T16:40:18.887Z,9.99
2023-04-01T16:42:53.378Z,10.04
2023-04-01T16:45:33.024Z,10.02
2023-04-01T16:48:12.634Z,10.16
2023-04-01T16:50:53.397Z,10.19
2023-04-01T16:53:36.899Z,10.40
2023-04-01T16:56:14.253Z,10.47
2023-04-01T16:58:50.629Z,10.48
2023-04-01T17:01:25.232Z,10.36
2023-04-01T17:04:02.845Z,10.45
2023-04-01T17:06:42.100Z,10.48
2023-04-01T17:09:27.748Z,10.46
2023-04-01T17:12:03.097Z,10.50
2023-04-01T17:14:42.192Z,10.35
2023-04-01T17:17:22.249Z,10.60
2023-04-01T17:20:29.603Z,10.67
2023-04-01T17:23:03.938Z,10.18
2023-04-01T17:25:56.935Z,10.68
2023-04-01T17:28:48.244Z,10.48
2023-04-01T17:31:28.786Z,10.44
2023-04-01T17:34:15.645Z,10.51
2023-04-01T17:36:59.446Z,10.66
2023-04-01T17:39:41.401Z,10.40
2023-04-01T17:42:16.309Z,9.90
2023-04-01T17:44:56.237Z,10.27
2023-04-01T17:47:39.582Z,10.44
2023-04-01T17:50:22.547Z,10.41
2023-04-01T17:53:04.274Z,10.45
2023-04-01T17:55:47.108Z,10.49
2023-04-01T17:58:21.811Z,10.43
2023-04-01T18:01:03.347Z,10.08
2023-04-01T18:04:19.945Z,10.47
2023-04-01T18:07:06.710Z,10.48
2023-04-01T18:09:47.470Z,10.52
2023-04-01T18:12:26.990Z,10.49
2023-04-01T18:15:23.877Z,10.51
2023-04-01T18:18:09.422Z,10.53
2023-04-01T18:20:54.033Z,10.53
2023-04-01T18:23:31.011Z,10.57
2023-04-01T18:26:10.761Z,10.49
2023-04-01T18:28:43.062Z,10.42
2023-04-01T18:31:18.570Z,10.56
2023-04-01T18:33:57.402Z,10.32
2023-04-01T18:36:39.995Z,10.38
2023-04-01T18:39:13.963Z,10.37
2023-04-01T18:41:55.297Z,10.04
2023-04-01T18:44:40.726Z,10.32
2023-04-01T18:47:24.999Z,10.05
2023-04-01T18:50:02.595Z,10.13
2023-04-01T18:52:37.586Z,10.29
2023-04-01T18:55:32.276Z,10.08
2023-04-01T18:58:19.172Z,10.32
2023-04-01T19:00:54.100Z,10.21
2023-04-01T19:03:28.260Z,10.09
2023-04-01T19:06:02.135Z,10.14
2023-04-01T19:08:34.834Z,10.23
2023-04-01T19:11:12.189Z,10.24
2023-04-01T19:13:52.711Z,10.18
2023-04-01T19:16:35.912Z,10.30
2023-04-01T19:19:22.452Z,10.19
2023-04-01T19:22:00.544Z,10.30
2023-04-01T19:25:05.091Z,10.42
2023-04-01T19:27:39.753Z,10.00
2023-04-01T19:30:34.862Z,10.02
2023-04-01T19:33:20.366Z,10.19
2023-04-01T19:35:56.337Z,10.21
2023-04-01T19:38:30.416Z,10.08
2023-04-01T19:41:06.692Z,10.16
2023-04-01T19:43:50.556Z,10.19
2023-04-01T19:46:32.296Z,10.15
2023-04-01T19:49:16.700Z,10.28
2023-04-01T19:51:53.699Z,10.20
2023-04-01T19:54:32.637Z,10.18
2023-04-01T19:57:13.564Z,10.26
2023-04-01T19:59:51.449Z,10.25
2023-04-01T20:02:57.251Z,10.04
2023-04-01T20:05:38.214Z,10.06
2023-04-01T20:08:18.107Z,10.04
2023-04-01T20:10:58.655Z,9.87
2023-04-01T20:13:36.257Z,10.00
2023-04-01T20:16:08.205Z,10.01
2023-04-01T20:18:46.670Z,10.05
2023-04-01T20:21:26.909Z,10.17
2023-04-01T20:24:01.049Z,9.79
2023-04-01T20:26:34.980Z,9.64
2023-04-01T20:29:25.549Z,9.82
2023-04-01T20:32:06.020Z,9.68
2023-04-01T20:34:55.136Z,9.73
2023-04-01T20:37:37.910Z,9.82
2023-04-01T20:40:32.824Z,9.82
2023-04-01T20:43:27.776Z,9.81
2023-04-01T20:46:00.616Z,9.75
2023-04-01T20:48:51.435Z,9.84
2023-04-01T20:51:25.170Z,9.69
2023-04-01T20:54:04.614Z,9.74
2023-04-01T20:56:43.462Z,9.76
2023-04-01T20:59:42.429Z,9.86
2023-04-01T21:02:28.966Z,9.88
2023-04-01T21:05:28.024Z,9.93
2023-04-01T21:08:05.235Z,9.86
2023-04-01T21:10:42.528Z,9.76
2023-04-01T21:13:32.819Z,9.85
2023-04-01T21:16:17.133Z,9.78
2023-04-01T21:19:04.305Z,9.84
2023-04-01T21:21:49.280Z,9.85
2023-04-01T21:24:55.711Z,9.91
2023-04-01T21:27:47.477Z,9.72
2023-04-01T21:30:36.245Z,9.71
2023-04-01T21:33:16.599Z,9.57
2023-04-01T21:35:59.126Z,9.64
2023-04-01T21:38:46.028Z,9.74
2023-04-01T21:41:31.471Z,9.73
2023-04-01T21:44:43.320Z,9.77
2023-04-01T21:47:57.368Z,9.69
2023-04-01T21:51:13.450Z,9.38
2023-04-01T21:54:20.857Z,9.42
2023-04-01T21:57:27.532Z,9.50
2023-04-01T22:00:23.704Z,9.53
2023-04-01T22:03:35.750Z,9.60
2023-04-01T22:06:23.620Z,9.54
2023-04-01T22:09:07.812Z,9.51
2023-04-01T22:11:55.332Z,9.56
2023-04-01T22:14:33.691Z,9.50
2023-04-01T22:17:14.700Z,9.52
2023-04-01T22:19:56.586Z,9.58
2023-04-01T22:22:32.237Z,9.52
2023-04-01T22:25:10.467Z,9.58
2023-04-01T22:27:46.951Z,9.57
2023-04-01T22:30:22.534Z,9.56
2023-04-01T22:32:58.781Z,9.55
2023-04-01T22:35:36.053Z,9.56
2023-04-01T22:38:18.406Z,9.53
2023-04-01T22:40:55.216Z,9.51
2023-04-01T22:43:34.253Z,9.49
2023-04-01T22:46:19.241Z,9.39
2023-04-01T22:48:53.010Z,9.31
2023-04-01T22:51:26.502Z,9.38
2023-04-01T22:54:04.815Z,9.35
2023-04-01T22:56:38.465Z,9.32
2023-04-01T22:59:16.121Z,9.30
2023-04-01T23:01:51.765Z,9.27
2023-04-01T23:04:25.619Z,9.33
2023-04-01T23:06:59.948Z,9.36
2023-04-01T23:09:31.173Z,9.27
2023-04-01T23:12:04.262Z,9.26
2023-04-01T23:14:48.498Z,9.26
2023-04-01T23:17:58.737Z,9.29
2023-04-01T23:20:42.236Z,9.26
2023-04-01T23:23:22.727Z,9.27
2023-04-01T23:26:00.361Z,9.13
2023-04-01T23:28:43.610Z,9.09
2023-04-01T23:31:29.750Z,9.02
2023-04-01T23:34:00.605Z,8.93
2023-04-01T23:36:33.005Z,8.95
2023-04-01T23:39:23.517Z,8.90
2023-04-01T23:41:55.541Z,8.92
2023-04-01T23:44:28.122Z,8.93
2023-04-01T23:46:59.255Z,8.96
2023-04-01T23:49:35.583Z,8.99
2023-04-01T23:52:14.128Z,9.11
2023-04-01T23:54:46.846Z,9.02
2023-04-01T23:57:19.958Z,8.88
